Time;durP1;ratioP1;P1;durP2;ratioP2;P2;SDS_P1;SDS_P2;PMS_P1;PMS_P2;Temp;Humidity;BMP_temperature;BMP_pressure;BME280_temperature;BME280_humidity;BME280_pressure;Samples;Min_cycle;Max_cycle;Signal;HPM_P1;HPM_P2
2022/04/29 07:58:37;;;;;;;19.27;13.57;;;;;;;10.73;66.68;102774.91;5365656;27;20374;-70
2022/04/29 08:01:09;;;;;;;19.20;14.05;;;;;;;10.68;67.04;102772.88;5364132;27;20023;-70
2022/04/29 08:03:41;;;;;;;31.23;21.75;;;;;;;10.63;66.59;102772.75;5365490;27;20094;-70
2022/04/29 08:06:15;;;;;;;26.58;19.67;;;;;;;10.63;66.52;102787.50;5365160;27;20110;-69
2022/04/29 08:08:47;;;;;;;30.45;24.70;;;;;;;10.66;67.15;102775.06;5362334;27;20029;-72
2022/04/29 08:11:21;;;;;;;18.77;12.95;;;;;;;10.78;67.39;102778.66;5364755;27;20457;-74
2022/04/29 08:13:53;;;;;;;18.67;14.48;;;;;;;10.75;66.60;102790.25;5365676;27;20493;-73
2022/04/29 08:16:24;;;;;;;21.27;13.95;;;;;;;10.74;66.71;102779.41;5366355;27;20050;-73
2022/04/29 08:18:55;;;;;;;19.35;12.27;;;;;;;10.94;67.16;102782.63;5365188;27;20431;-72
2022/04/29 08:21:26;;;;;;;20.95;15.07;;;;;;;10.87;66.16;102779.13;5363950;27;20031;-73
2022/04/29 08:23:58;;;;;;;21.65;13.93;;;;;;;10.87;65.77;102781.91;5364237;27;20026;-75
2022/04/29 08:26:32;;;;;;;18.77;12.95;;;;;;;10.91;66.26;102788.63;5353300;27;20027;-74
2022/04/29 08:29:03;;;;;;;19.33;13.85;;;;;;;10.99;66.00;102779.09;5342030;28;20035;-74
2022/04/29 08:31:34;;;;;;;19.60;13.60;;;;;;;11.17;65.74;102787.25;5343597;28;20107;-74
2022/04/29 08:34:07;;;;;;;23.63;14.18;;;;;;;11.12;65.71;102792.72;5363051;27;20059;-73
2022/04/29 08:36:38;;;;;;;18.90;14.80;;;;;;;11.02;66.44;102792.50;5363372;27;20110;-73
2022/04/29 08:39:10;;;;;;;22.08;14.43;;;;;;;11.17;66.25;102797.50;5364724;27;20522;-73
2022/04/29 08:41:42;;;;;;;18.52;14.00;;;;;;;11.14;65.20;102790.50;5364326;27;20552;-74
2022/04/29 08:44:13;;;;;;;21.80;13.60;;;;;;;11.40;65.86;102791.00;5345508;27;20031;-73
2022/04/29 08:46:45;;;;;;;18.48;14.10;;;;;;;11.50;65.47;102777.31;5342788;28;20050;-73
2022/04/29 08:49:17;;;;;;;22.92;13.20;;;;;;;11.58;65.30;102782.50;5342665;28;20024;-73
2022/04/29 08:51:48;;;;;;;19.25;13.18;;;;;;;11.67;65.43;102789.31;5342307;28;20020;-74
2022/04/29 09:00:05;;;;;;;22.33;13.68;;;;;;;11.70;64.84;102769.34;5366914;27;20738;-72
2022/04/29 09:02:39;;;;;;;22.38;15.25;;;;;;;11.75;65.38;102754.72;5364559;27;20035;-72
2022/04/29 09:05:11;;;;;;;20.58;13.70;;;;;;;11.82;64.00;102743.44;5363300;27;20023;-73
2022/04/29 09:07:57;;;;;;;21.70;14.90;;;;;;;11.80;64.62;102765.09;5362629;27;20033;-72
2022/04/29 09:10:34;;;;;;;20.88;12.80;;;;;;;11.86;64.77;102772.41;5349439;27;20106;-73
2022/04/29 09:13:14;;;;;;;19.80;14.10;;;;;;;11.82;64.44;102783.19;5348221;27;20064;-72
2022/04/29 09:15:57;;;;;;;20.13;14.57;;;;;;;11.80;64.25;102787.31;5349115;27;20530;-72
2022/04/29 09:18:33;;;;;;;21.17;13.45;;;;;;;11.77;63.99;102779.50;5328477;27;20027;-74
2022/04/29 09:21:13;;;;;;;21.65;13.80;;;;;;;11.87;64.47;102788.03;5340604;27;20501;-74
2022/04/29 09:23:47;;;;;;;24.77;14.15;;;;;;;11.89;64.70;102781.13;5348821;27;20442;-73
2022/04/29 09:26:19;;;;;;;19.85;13.68;;;;;;;11.95;64.15;102785.69;5346678;27;20106;-74
2022/04/29 09:29:08;;;;;;;21.65;12.70;;;;;;;12.40;65.14;102784.75;5349146;27;20034;-73
2022/04/29 09:31:52;;;;;;;31.48;18.60;;;;;;;12.27;63.19;102789.81;5348501;27;20080;-71
2022/04/29 09:34:43;;;;;;;21.92;14.20;;;;;;;12.18;63.16;102790.22;5343926;27;20053;-71
2022/04/29 09:37:19;;;;;;;25.83;15.15;;;;;;;12.06;63.45;102795.03;5349089;27;20035;-71
2022/04/29 09:39:54;;;;;;;22.73;13.85;;;;;;;12.12;62.75;102788.47;5346176;27;20063;-71
2022/04/29 09:42:39;;;;;;;;;;;;;;;12.31;63.70;102791.00;5349368;27;20405;-71
2022/04/29 09:45:12;;;;;;;22.92;17.45;;;;;;;12.10;63.75;102789.81;5355211;27;19949;-73
2022/04/29 09:47:43;;;;;;;39.85;28.10;;;;;;;12.12;63.78;102788.47;5344961;27;20083;-74
2022/04/29 09:50:15;;;;;;;22.02;15.45;;;;;;;12.06;64.29;102789.47;5342612;27;20022;-72
2022/04/29 09:52:46;;;;;;;22.45;14.70;;;;;;;12.13;64.29;102786.53;5342627;27;20023;-72
2022/04/29 09:55:19;;;;;;;22.27;13.32;;;;;;;12.24;64.00;102782.81;5345752;27;20052;-72
2022/04/29 09:57:52;;;;;;;19.42;13.55;;;;;;;12.08;64.86;102778.09;5346033;27;20047;-73
2022/04/29 10:00:23;;;;;;;21.85;15.52;;;;;;;12.11;64.49;102783.16;5349082;27;20050;-73
2022/04/29 10:02:56;;;;;;;29.27;15.00;;;;;;;12.06;64.37;102772.78;5345974;27;20563;-71
2022/04/29 10:05:29;;;;;;;18.52;12.70;;;;;;;12.21;64.14;102771.34;5347490;27;20021;-70
2022/04/29 10:08:05;;;;;;;22.38;14.38;;;;;;;12.29;64.41;102782.06;5331690;27;20026;-73
2022/04/29 10:10:37;;;;;;;20.77;13.82;;;;;;;12.09;64.92;102780.66;5337507;27;20460;-74
2022/04/29 10:13:09;;;;;;;21.35;13.45;;;;;;;12.29;64.94;102776.50;5348744;27;20114;-75
2022/04/29 10:15:44;;;;;;;18.15;13.43;;;;;;;12.37;64.59;102773.28;5347249;27;20419;-73
2022/04/29 10:21:15;;;;;;;21.77;14.93;;;;;;;12.17;64.16;102765.47;5347708;27;20035;-73
2022/04/29 10:23:49;;;;;;;21.27;13.85;;;;;;;12.34;64.50;102765.44;5347136;27;20027;-74
2022/04/29 10:26:22;;;;;;;18.58;13.00;;;;;;;12.56;65.12;102757.97;5335164;27;20023;-74
2022/04/29 10:28:54;;;;;;;25.00;14.35;;;;;;;12.47;63.54;102762.28;5347141;27;20468;-73
2022/04/29 10:31:31;;;;;;;17.50;12.98;;;;;;;12.62;63.57;102770.84;5347701;27;20031;-73
2022/04/29 10:34:28;;;;;;;20.08;13.00;;;;;;;12.56;64.33;102766.34;5348042;27;20113;-74
2022/04/29 10:37:13;;;;;;;20.83;12.93;;;;;;;12.62;63.45;102753.31;5346877;27;20505;-73
2022/04/29 10:40:09;;;;;;;21.48;13.07;;;;;;;12.66;62.73;102753.66;5347513;27;20031;-73
2022/04/29 10:43:03;;;;;;;;;;;;;;;12.83;63.70;102760.88;5341855;27;20102;-73
2022/04/29 10:45:35;;;;;;;19.73;12.48;;;;;;;12.79;63.05;102756.91;5347242;27;20014;-73
2022/04/29 10:48:29;;;;;;;16.23;10.10;;;;;;;12.98;62.95;102756.56;5347546;27;20029;-72
2022/04/29 10:51:26;;;;;;;17.10;10.38;;;;;;;13.15;62.16;102750.94;5346030;27;20019;-73
2022/04/29 10:53:58;;;;;;;17.60;11.60;;;;;;;13.24;62.66;102752.13;5337669;27;20031;-74
2022/04/29 10:56:32;;;;;;;23.88;14.02;;;;;;;12.94;61.77;102747.06;5347932;27;20131;-75
2022/04/29 10:59:03;;;;;;;16.73;11.95;;;;;;;13.05;62.37;102741.34;5338796;27;20432;-71
2022/04/29 11:01:36;;;;;;;16.87;12.60;;;;;;;12.99;62.12;102742.41;5345839;27;20031;-73
2022/04/29 11:04:30;;;;;;;25.20;12.45;;;;;;;13.00;62.39;102738.50;5346113;27;20273;-68
2022/04/29 11:07:02;;;;;;;15.25;11.35;;;;;;;12.76;62.49;102726.81;5346916;27;20031;-68
2022/04/29 11:09:49;;;;;;;18.77;13.55;;;;;;;12.84;62.30;102733.84;5347305;27;20466;-68
2022/04/29 11:12:34;;;;;;;19.55;13.02;;;;;;;13.03;62.13;102737.97;5346489;27;20027;-68
2022/04/29 11:15:20;;;;;;;15.65;12.25;;;;;;;13.01;62.34;102733.78;5346663;27;20083;-68
2022/04/29 11:17:54;;;;;;;;;;;;;;;13.11;61.33;102738.63;5324954;28;20028;-73
2022/04/29 11:20:25;;;;;;;15.98;12.68;;;;;;;12.89;62.15;102731.13;5326219;28;20374;-72
2022/04/29 11:25:58;;;;;;;28.70;19.08;;;;;;;12.96;62.09;102737.34;5325294;28;20031;-72
2022/04/29 11:28:30;;;;;;;18.73;14.00;;;;;;;12.98;62.23;102724.00;5324925;28;20020;-71
2022/04/29 11:31:05;;;;;;;18.42;11.77;;;;;;;12.92;61.68;102733.41;5325420;28;20359;-72
2022/04/29 11:33:38;;;;;;;19.92;12.43;;;;;;;13.09;61.32;102733.34;5336396;27;20375;-71
2022/04/29 11:36:11;;;;;;;15.63;10.20;;;;;;;13.32;61.10;102729.44;5346929;27;20027;-72
2022/04/29 11:38:47;;;;;;;18.42;11.00;;;;;;;13.30;61.50;102719.66;5347150;27;20117;-72
2022/04/29 11:41:21;;;;;;;31.52;23.30;;;;;;;13.22;60.83;102721.78;5346187;27;20047;-72
2022/04/29 11:43:52;;;;;;;20.77;12.52;;;;;;;13.12;61.36;102723.63;5346609;27;20462;-74
2022/04/29 11:46:26;;;;;;;29.83;22.42;;;;;;;13.30;60.36;102720.50;5346304;27;20136;-73
2022/04/29 11:48:59;;;;;;;20.45;11.35;;;;;;;13.32;59.99;102729.44;5347089;27;20023;-73
2022/04/29 11:51:31;;;;;;;20.67;11.77;;;;;;;13.42;59.98;102732.34;5344767;27;20125;-72
2022/04/29 11:54:04;;;;;;;18.25;13.13;;;;;;;13.57;60.17;102716.84;5347491;27;20106;-73
2022/04/29 11:56:42;;;;;;;17.65;11.30;;;;;;;13.65;60.05;102724.72;5347318;27;20067;-73
2022/04/29 11:59:13;;;;;;;14.32;10.48;;;;;;;13.80;58.94;102727.63;5346385;27;20023;-71
2022/04/29 12:01:45;;;;;;;20.25;11.50;;;;;;;13.69;58.97;102728.66;5345479;27;20019;-71
2022/04/29 12:04:16;;;;;;;15.57;8.27;;;;;;;14.01;58.71;102727.81;5346328;28;20462;-72
2022/04/29 12:06:57;;;;;;;17.75;9.68;;;;;;;14.06;58.72;102733.41;5340119;27;20028;-71
2022/04/29 12:09:35;;;;;;;13.63;9.80;;;;;;;14.12;58.32;102726.78;5324531;28;20537;-71
2022/04/29 12:12:28;;;;;;;16.25;9.23;;;;;;;14.24;57.78;102718.19;5327499;28;20032;-71
2022/04/29 12:14:59;;;;;;;13.63;8.65;;;;;;;14.46;57.31;102709.69;5345481;27;20470;-71
2022/04/29 12:17:39;;;;;;;18.95;10.05;;;;;;;14.42;57.25;102716.91;5345729;27;20076;-71
2022/04/29 12:20:18;;;;;;;24.65;10.48;;;;;;;14.42;56.91;102712.19;5346462;27;20027;-71
2022/04/29 12:22:50;;;;;;;16.45;9.73;;;;;;;14.31;56.53;102713.22;5345680;27;20035;-71
2022/04/29 12:25:38;;;;;;;13.32;10.40;;;;;;;14.22;56.74;102704.53;5327322;27;20030;-71
2022/04/29 12:28:19;;;;;;;16.35;10.13;;;;;;;14.21;56.53;102702.84;5323880;28;20119;-70
2022/04/29 12:37:08;;;;;;;17.73;10.77;;;;;;;14.43;55.10;102693.50;5345580;28;20039;-72
2022/04/29 12:39:43;;;;;;;16.33;9.50;;;;;;;14.41;54.32;102693.75;5346083;27;20539;-70
2022/04/29 12:42:19;;;;;;;16.60;9.77;;;;;;;14.57;54.43;102700.28;5343889;28;20027;-69
2022/04/29 12:45:22;;;;;;;13.02;8.77;;;;;;;14.51;53.23;102701.34;5348762;27;20023;-71
2022/04/29 12:48:04;;;;;;;13.07;7.70;;;;;;;14.51;53.63;102701.34;5349703;27;20059;-71
2022/04/29 12:50:37;;;;;;;11.90;8.27;;;;;;;14.55;52.92;102694.16;5348874;27;20102;-71
2022/04/29 12:53:13;;;;;;;13.32;9.30;;;;;;;14.50;52.63;102699.69;5349822;27;20045;-72
2022/04/29 12:55:51;;;;;;;12.95;8.13;;;;;;;14.54;52.26;102695.25;5349516;27;20023;-73
2022/04/29 12:58:26;;;;;;;13.65;8.38;;;;;;;14.64;52.19;102694.47;5337765;27;20043;-71
2022/04/29 13:01:06;;;;;;;30.85;22.88;;;;;;;14.64;51.83;102700.03;5328320;28;20051;-71
2022/04/29 13:03:37;;;;;;;11.02;8.30;;;;;;;14.73;51.71;102693.66;5327211;28;20012;-70
2022/04/29 13:06:10;;;;;;;13.27;7.88;;;;;;;14.69;50.99;102686.94;5335839;27;20030;-70
2022/04/29 13:08:42;;;;;;;22.05;11.98;;;;;;;14.77;51.04;102683.59;5353123;27;20049;-73
2022/04/29 13:11:16;;;;;;;12.32;7.90;;;;;;;14.86;51.59;102686.72;5348562;27;20059;-74
2022/04/29 13:13:52;;;;;;;10.10;8.35;;;;;;;14.88;51.59;102686.44;5349155;27;20026;-75
2022/04/29 13:16:24;;;;;;;15.63;8.93;;;;;;;14.80;51.60;102682.22;5342463;27;20023;-75
2022/04/29 13:19:02;;;;;;;10.55;7.93;;;;;;;14.91;53.05;102675.56;5347405;27;20027;-76
2022/04/29 13:21:33;;;;;;;12.25;7.95;;;;;;;15.07;51.80;102667.22;5349336;27;20035;-73
2022/04/29 13:24:05;;;;;;;16.60;8.82;;;;;;;15.34;52.41;102672.56;5348884;27;20098;-75
2022/04/29 13:26:37;;;;;;;14.70;8.82;;;;;;;15.31;51.81;102661.94;5348687;27;20134;-74
2022/04/29 13:29:08;;;;;;;41.22;33.50;;;;;;;15.45;52.04;102660.31;5349436;27;20125;-74
2022/04/29 13:31:40;;;;;;;12.20;8.60;;;;;;;15.50;51.72;102662.28;5343643;27;20089;-73
2022/04/29 13:34:11;;;;;;;12.65;9.63;;;;;;;15.35;51.36;102654.69;5344198;27;20084;-74
2022/04/29 13:36:42;;;;;;;12.75;9.60;;;;;;;15.35;51.24;102649.94;5348510;27;20038;-73
2022/04/29 13:39:14;;;;;;;13.43;9.52;;;;;;;15.42;51.95;102652.47;5348015;27;20375;-74
2022/04/29 13:41:45;;;;;;;11.88;9.23;;;;;;;15.44;52.04;102653.88;5348905;27;20438;-74
2022/04/29 13:44:16;;;;;;;14.00;9.85;;;;;;;15.19;51.91;102651.88;5348308;27;20027;-74
2022/04/29 13:46:47;;;;;;;17.15;9.77;;;;;;;15.23;52.45;102647.41;5347877;27;20380;-74
2022/04/29 13:49:19;;;;;;;12.65;9.40;;;;;;;15.18;52.57;102646.56;5338621;27;20498;-74
2022/04/29 13:51:50;;;;;;;18.40;9.85;;;;;;;15.28;52.97;102649.38;5327613;28;20020;-74
2022/04/29 13:54:22;;;;;;;15.75;10.15;;;;;;;15.43;52.96;102646.59;5326321;28;20039;-74
2022/04/29 13:56:57;;;;;;;11.15;9.98;;;;;;;15.37;51.31;102641.28;5341531;27;20401;-74
2022/04/29 13:59:30;;;;;;;16.08;9.10;;;;;;;15.50;51.37;102645.50;5348447;27;20019;-75
2022/04/29 14:02:01;;;;;;;16.67;14.55;;;;;;;15.51;50.46;102642.41;5347383;27;20076;-76
2022/04/29 14:04:33;;;;;;;11.35;9.40;;;;;;;15.52;50.24;102634.84;5351614;27;20419;-75
2022/04/29 14:07:04;;;;;;;16.15;9.88;;;;;;;15.41;50.47;102639.59;5331124;27;20478;-76
2022/04/29 14:09:35;;;;;;;12.27;9.15;;;;;;;15.54;49.94;102630.66;5341817;27;20047;-75
2022/04/29 14:12:11;;;;;;;13.35;8.93;;;;;;;15.46;49.42;102638.78;5348409;27;20500;-76
2022/04/29 14:14:43;;;;;;;11.90;9.13;;;;;;;15.49;49.92;102630.66;5347630;27;20043;-77
2022/04/29 14:17:15;;;;;;;11.80;9.73;;;;;;;15.45;49.79;102637.94;5348304;27;20164;-74
2022/04/29 14:19:47;;;;;;;14.40;10.27;;;;;;;15.43;49.87;102621.44;5347141;27;20046;-74
2022/04/29 14:22:19;;;;;;;16.77;9.43;;;;;;;15.47;50.30;102615.28;5345122;27;20485;-74
2022/04/29 14:24:51;;;;;;;13.88;9.10;;;;;;;15.45;50.50;102612.78;5326580;28;20111;-74
2022/04/29 14:27:22;;;;;;;13.25;8.13;;;;;;;15.58;49.95;102615.00;5326946;28;20474;-75
2022/04/29 14:29:54;;;;;;;14.60;9.57;;;;;;;15.56;49.91;102610.81;5325950;28;20023;-72
2022/04/29 14:32:25;;;;;;;13.10;10.88;;;;;;;15.58;49.97;102617.78;5327469;27;20020;-73
2022/04/29 14:34:57;;;;;;;13.55;9.02;;;;;;;15.60;49.84;102615.56;5347275;27;20023;-73
2022/04/29 14:37:32;;;;;;;14.18;10.10;;;;;;;15.62;49.48;102621.72;5346733;27;20019;-75
2022/04/29 14:40:04;;;;;;;11.67;7.87;;;;;;;15.74;49.23;102610.25;5347007;27;20114;-74
2022/04/29 14:42:36;;;;;;;18.10;12.00;;;;;;;15.79;49.12;102606.63;5346997;27;20011;-74
2022/04/29 14:45:08;;;;;;;13.05;8.57;;;;;;;15.74;48.66;102607.44;5347472;27;20126;-74
2022/04/29 14:47:40;;;;;;;16.73;9.32;;;;;;;15.79;48.29;102603.81;5347620;27;20100;-73
2022/04/29 14:50:12;;;;;;;14.93;9.25;;;;;;;15.77;48.67;102606.06;5345903;27;20024;-73
2022/04/29 14:52:43;;;;;;;15.20;9.70;;;;;;;15.79;48.62;102604.66;5346627;27;20454;-72
2022/04/29 14:55:14;;;;;;;12.75;11.20;;;;;;;15.66;48.41;102611.63;5346459;27;20566;-77
2022/04/29 14:57:45;;;;;;;11.00;9.38;;;;;;;15.68;48.59;102604.94;5343457;27;20051;-75
2022/04/29 15:00:17;;;;;;;14.55;10.75;;;;;;;15.69;48.39;102601.88;5347646;27;20027;-74
2022/04/29 15:02:51;;;;;;;15.15;8.85;;;;;;;15.66;49.04;102596.81;5347271;27;20020;-76
2022/04/29 15:05:22;;;;;;;11.63;8.68;;;;;;;15.78;48.84;102589.00;5346234;27;20039;-75
2022/04/29 15:07:54;;;;;;;10.48;8.52;;;;;;;15.72;48.98;102592.94;5346136;27;20033;-74
2022/04/29 15:16:05;;;;;;;12.82;9.55;;;;;;;15.89;48.50;102603.78;5340210;27;20043;-73
2022/04/29 15:18:37;;;;;;;11.13;9.32;;;;;;;15.74;48.17;102607.44;5346090;27;20019;-74
2022/04/29 15:21:09;;;;;;;12.25;8.27;;;;;;;15.84;48.92;102596.25;5346699;27;20024;-72
2022/04/29 15:23:40;;;;;;;16.60;10.82;;;;;;;15.77;48.59;102606.06;5346989;27;20069;-74
2022/04/29 15:26:12;;;;;;;13.10;8.95;;;;;;;15.89;48.46;102597.38;5349332;27;20031;-72
2022/04/29 15:28:43;;;;;;;17.08;9.70;;;;;;;15.73;48.48;102599.34;5346376;27;20039;-73
2022/04/29 15:31:17;;;;;;;18.33;9.23;;;;;;;15.76;48.57;102605.22;5342157;27;20023;-74
2022/04/29 15:33:48;;;;;;;11.07;8.40;;;;;;;15.82;48.77;102603.25;5346586;27;20065;-74
2022/04/29 15:36:20;;;;;;;14.05;7.57;;;;;;;15.82;49.25;102608.84;5346576;27;20027;-74
2022/04/29 15:38:51;;;;;;;12.48;9.38;;;;;;;15.76;47.85;102607.19;5349079;27;20501;-73
2022/04/29 15:41:22;;;;;;;13.43;9.55;;;;;;;15.63;47.80;102606.59;5346635;27;20054;-74
2022/04/29 15:43:54;;;;;;;14.82;9.00;;;;;;;15.65;48.01;102609.97;5346132;27;20034;-76
2022/04/29 15:46:25;;;;;;;13.75;8.60;;;;;;;15.73;47.53;102604.97;5345276;27;20102;-77
2022/04/29 15:48:56;;;;;;;14.02;10.68;;;;;;;15.64;47.52;102604.63;5343315;27;20027;-74
2022/04/29 15:51:27;;;;;;;14.40;8.90;;;;;;;15.64;47.14;102604.63;5346110;27;20019;-74
2022/04/29 15:53:59;;;;;;;18.25;15.43;;;;;;;15.72;47.26;102606.06;5345108;27;20019;-74
2022/04/29 15:56:37;;;;;;;10.77;9.20;;;;;;;15.63;47.54;102602.97;5345105;28;20039;-74
2022/04/29 15:59:08;;;;;;;9.27;8.30;;;;;;;15.61;46.87;102606.03;5345814;27;20057;-71
2022/04/29 16:01:39;;;;;;;11.07;9.65;;;;;;;15.70;47.95;102608.28;5346431;27;20056;-70
2022/04/29 16:04:11;;;;;;;9.68;8.10;;;;;;;15.58;47.17;102601.00;5345763;27;20079;-71
2022/04/29 16:06:42;;;;;;;12.02;8.88;;;;;;;15.58;47.36;102594.59;5324168;28;20030;-73
2022/04/29 16:09:15;;;;;;;13.27;8.20;;;;;;;15.62;49.75;102606.88;5325272;28;20024;-74
2022/04/29 16:11:46;;;;;;;11.73;8.65;;;;;;;15.64;47.05;102602.66;5326160;28;20028;-74
2022/04/29 16:14:17;;;;;;;11.50;8.55;;;;;;;15.60;47.21;102606.34;5344810;28;20031;-73
2022/04/29 16:16:49;;;;;;;19.63;15.65;;;;;;;15.67;47.63;102598.47;5345283;28;20079;-74
2022/04/29 16:22:10;;;;;;;13.07;9.90;;;;;;;15.74;47.89;102584.25;5339631;27;20031;-73
2022/04/29 16:27:31;;;;;;;11.45;8.25;;;;;;;15.71;48.10;102588.44;5345663;27;20114;-72
2022/04/29 16:30:02;;;;;;;13.38;8.57;;;;;;;15.60;47.86;102589.56;5349970;27;20114;-73
2022/04/29 16:32:34;;;;;;;15.32;8.18;;;;;;;15.70;48.58;102588.72;5350474;27;20027;-75
2022/04/29 16:35:05;;;;;;;14.15;8.48;;;;;;;15.69;48.55;102585.09;5349320;27;20109;-73
2022/04/29 16:37:38;;;;;;;10.20;8.73;;;;;;;15.56;48.36;102586.47;5349081;27;20069;-73
2022/04/29 16:40:10;;;;;;;11.75;8.65;;;;;;;15.51;50.74;102586.47;5333210;27;20451;-72
2022/04/29 16:42:42;;;;;;;13.95;8.82;;;;;;;15.46;49.12;102583.69;5339379;27;20431;-72
2022/04/29 16:45:13;;;;;;;10.65;8.25;;;;;;;15.48;51.32;102578.66;5349850;27;20031;-73
2022/04/29 16:47:46;;;;;;;15.70;9.43;;;;;;;15.31;49.12;102575.31;5349846;27;20091;-77
2022/04/29 16:50:18;;;;;;;14.05;8.85;;;;;;;15.36;49.59;102578.94;5350169;27;20027;-73
2022/04/29 16:52:50;;;;;;;12.48;9.30;;;;;;;15.18;49.31;102582.28;5352855;27;20042;-80
2022/04/29 16:55:21;;;;;;;10.48;9.48;;;;;;;15.30;49.18;102580.06;5352867;27;20015;-79
2022/04/29 17:00:45;;;;;;;14.05;9.63;;;;;;;15.51;48.94;102574.47;5368838;27;20062;-79
2022/04/29 17:03:17;;;;;;;10.95;8.68;;;;;;;15.67;48.95;102564.91;5354787;27;20454;-78
2022/04/29 17:05:48;;;;;;;14.52;12.43;;;;;;;15.73;48.78;102558.25;5352525;27;20019;-79
2022/04/29 17:08:20;;;;;;;10.65;9.57;;;;;;;15.68;48.33;102560.19;5351252;27;20388;-80
2022/04/29 17:10:51;;;;;;;13.40;8.15;;;;;;;15.68;48.25;102558.22;5350482;27;20102;-79
2022/04/29 17:13:23;;;;;;;13.10;9.35;;;;;;;15.53;48.18;102567.47;5340291;27;20027;-79
2022/04/29 17:15:56;;;;;;;11.90;10.32;;;;;;;15.49;48.48;102560.75;5330365;28;20015;-82
2022/04/29 17:18:29;;;;;;;14.65;9.73;;;;;;;15.52;48.48;102559.34;5331382;28;20042;-82
2022/04/29 17:21:05;;;;;;;13.43;9.85;;;;;;;15.60;48.56;102565.22;5351061;27;20040;-82
2022/04/29 17:23:36;;;;;;;;;;;;;;;15.74;48.00;102559.06;5354447;27;20106;-81
2022/04/29 17:26:07;;;;;;;11.87;9.77;;;;;;;15.60;48.73;102562.44;5351843;27;20014;-81
2022/04/29 17:28:38;;;;;;;45.25;40.35;;;;;;;15.70;48.55;102552.34;5335819;27;20293;-81
